Terminal Aerodrome Forecast
Issued by NWS Charleston, WV

Current Version | Previous Version | Text Only | Print | Product List | Glossary Off
Versions: 1 2 3 4 5 6 7 8 9 10 11 12 13 14 15 16 17 18 19 20 21 22 23 24 25

000
FTUS41 KRLX 260500
TAFPKB
TAF
KPKB 260526Z 2606/2706 16003KT P6SM SKC
     FM261800 19008KT P6SM SKC
     FM270100 00000KT P6SM FEW120=

USA.gov is the U.S. government's official web portal to all federal, state and local government web resources and services.